Flugplatz Fassberg Airport

Bericht für ETHS

vom 25.01. um 23:20 UTC

Wind 7 kt aus 240°

Sichtweite 4800 m

Temperatur -1.0°C

Taupunkt -1.0°C

Luftfeuchtigkeit 100%

Luftdruck 1020 hPa

ETHS 252320Z AUTO 24007KT 4800 // ////// M01/M01 Q1020 ///
Keine Prognose (TAF) verfügbar.
Impressum